createdAt,value
2018-12-01T05:01:05.300Z,3.00
2018-12-01T05:03:33.423Z,3.00
2018-12-01T05:06:01.487Z,3.10
2018-12-01T05:08:29.575Z,3.10
2018-12-01T05:10:57.664Z,3.20
2018-12-01T05:13:26.885Z,2.80
2018-12-01T05:15:55.039Z,3.30
2018-12-01T05:18:23.128Z,3.40
2018-12-01T05:20:51.223Z,3.20
2018-12-01T05:23:19.310Z,3.20
2018-12-01T05:25:47.396Z,3.20
2018-12-01T05:28:15.502Z,3.30
2018-12-01T05:30:43.796Z,3.30
2018-12-01T05:33:11.896Z,3.50
2018-12-01T05:35:39.971Z,3.30
2018-12-01T05:38:08.072Z,3.50
2018-12-01T05:40:36.156Z,3.50
2018-12-01T05:43:04.372Z,3.30
2018-12-01T05:45:32.459Z,3.30
2018-12-01T05:48:00.559Z,3.50
2018-12-01T05:50:28.627Z,3.50
2018-12-01T05:52:57.115Z,3.50
2018-12-01T05:55:25.426Z,3.60
2018-12-01T05:57:53.575Z,3.60
2018-12-01T06:00:21.951Z,3.60
2018-12-01T06:02:50.052Z,3.80
2018-12-01T06:05:18.123Z,3.70
2018-12-01T06:07:46.231Z,3.70
2018-12-01T06:10:17.449Z,3.70
2018-12-01T06:12:45.932Z,3.50
2018-12-01T06:15:16.576Z,3.70
2018-12-01T06:17:44.652Z,3.70
2018-12-01T06:20:16.714Z,3.70
2018-12-01T06:22:44.803Z,3.70
2018-12-01T06:25:14.916Z,3.70
2018-12-01T06:27:43.055Z,3.70
2018-12-01T06:30:14.328Z,3.80
2018-12-01T06:32:42.577Z,3.80
2018-12-01T06:35:10.693Z,3.80
2018-12-01T06:37:38.763Z,3.80
2018-12-01T06:40:10.287Z,3.80
2018-12-01T06:42:38.399Z,3.80
2018-12-01T06:45:09.244Z,3.90
2018-12-01T06:47:38.964Z,3.90
2018-12-01T06:50:23.216Z,3.90
2018-12-01T06:52:53.213Z,3.90
2018-12-01T06:55:22.190Z,3.90
2018-12-01T06:57:50.259Z,3.90
2018-12-01T07:00:19.559Z,3.90
2018-12-01T07:02:48.137Z,4.00
2018-12-01T07:05:16.827Z,4.00
2018-12-01T07:07:44.915Z,4.00
2018-12-01T07:10:14.211Z,4.00
2018-12-01T07:12:44.717Z,4.00
2018-12-01T07:15:16.196Z,4.20
2018-12-01T07:17:44.299Z,4.20
2018-12-01T07:20:12.387Z,4.10
2018-12-01T07:22:40.517Z,4.10
2018-12-01T07:25:08.592Z,4.40
2018-12-01T07:27:36.676Z,4.40
2018-12-01T07:30:13.448Z,4.20
2018-12-01T07:32:42.232Z,4.40
2018-12-01T07:35:10.334Z,4.40
2018-12-01T07:37:38.856Z,4.30
2018-12-01T07:40:11.843Z,4.30
2018-12-01T07:42:40.060Z,4.50
2018-12-01T07:45:11.261Z,4.60
2018-12-01T07:47:39.362Z,4.60
2018-12-01T07:50:10.410Z,4.40
2018-12-01T07:52:38.491Z,4.60
2018-12-01T07:55:07.062Z,4.70
2018-12-01T07:57:35.159Z,4.70
2018-12-01T08:00:04.854Z,4.80
2018-12-01T08:02:33.471Z,4.80
2018-12-01T08:05:03.144Z,4.80
2018-12-01T08:07:31.336Z,4.90
2018-12-01T08:09:59.456Z,5.10
2018-12-01T08:12:27.552Z,4.90
2018-12-01T08:14:55.755Z,5.10
2018-12-01T08:17:23.943Z,5.00
2018-12-01T08:19:52.566Z,5.00
2018-12-01T08:22:21.028Z,5.10
2018-12-01T08:24:49.191Z,5.30
2018-12-01T08:27:17.372Z,5.30
2018-12-01T08:29:45.562Z,5.40
2018-12-01T08:32:13.635Z,5.30
2018-12-01T08:34:41.735Z,5.20
2018-12-01T08:37:09.880Z,5.10
2018-12-01T08:39:38.108Z,5.40
2018-12-01T08:42:07.775Z,5.20
2018-12-01T08:44:35.904Z,5.30
2018-12-01T08:47:04.037Z,5.50
2018-12-01T08:49:32.096Z,5.50
2018-12-01T08:52:00.208Z,5.60
2018-12-01T08:54:28.303Z,5.50
2018-12-01T08:56:57.216Z,5.40
2018-12-01T08:59:25.327Z,5.40
2018-12-01T09:01:53.436Z,5.40
2018-12-01T09:04:22.904Z,5.40
2018-12-01T09:06:51.013Z,5.30
2018-12-01T09:09:19.104Z,5.50
2018-12-01T09:11:47.180Z,5.50
2018-12-01T09:14:15.263Z,5.60
2018-12-01T09:16:43.358Z,5.80
2018-12-01T09:19:11.960Z,5.80
2018-12-01T09:21:40.071Z,5.80
2018-12-01T09:24:08.163Z,5.80
2018-12-01T09:26:37.085Z,5.80
2018-12-01T09:29:05.436Z,6.00
2018-12-01T09:31:33.516Z,6.10
2018-12-01T09:34:01.608Z,6.30
2018-12-01T09:36:29.700Z,6.50
2018-12-01T09:38:57.794Z,6.90
2018-12-01T09:41:25.896Z,7.40
2018-12-01T09:43:54.009Z,7.30
2018-12-01T09:46:22.083Z,7.70
2018-12-01T09:48:50.185Z,7.80
2018-12-01T09:51:18.256Z,7.70
2018-12-01T09:53:46.351Z,7.60
2018-12-01T09:56:14.436Z,7.50
2018-12-01T09:58:42.539Z,7.50
2018-12-01T10:01:10.643Z,7.60
2018-12-01T10:03:38.723Z,7.60
2018-12-01T10:06:07.815Z,7.60
2018-12-01T10:08:36.491Z,7.60
2018-12-01T10:11:04.927Z,7.20
2018-12-01T10:13:33.027Z,7.00
2018-12-01T10:16:01.563Z,6.90
2018-12-01T10:18:30.349Z,7.00
2018-12-01T10:20:58.460Z,7.30
2018-12-01T10:23:26.557Z,7.20
2018-12-01T10:25:54.640Z,7.10
2018-12-01T10:28:22.742Z,7.20
2018-12-01T10:30:50.824Z,7.60
2018-12-01T10:33:19.066Z,7.90
2018-12-01T10:35:47.191Z,8.60
2018-12-01T10:38:16.903Z,8.70
2018-12-01T10:40:44.999Z,8.80
2018-12-01T10:43:13.160Z,9.00
2018-12-01T10:45:42.843Z,9.50
2018-12-01T10:48:10.947Z,10.30
2018-12-01T10:50:39.299Z,10.70
2018-12-01T10:53:07.707Z,10.40
2018-12-01T10:55:35.900Z,9.40
2018-12-01T10:58:10.561Z,8.80
2018-12-01T11:00:44.253Z,8.90
2018-12-01T11:03:18.044Z,9.30
2018-12-01T11:05:46.579Z,9.60
2018-12-01T11:08:15.694Z,9.80
2018-12-01T11:10:44.175Z,10.20
2018-12-01T11:13:12.449Z,12.10
2018-12-01T11:15:40.724Z,14.50
2018-12-01T11:18:08.811Z,16.70
2018-12-01T11:20:36.919Z,17.50
2018-12-01T11:23:05.610Z,19.00
2018-12-01T11:25:33.992Z,19.20
2018-12-01T11:28:02.873Z,17.20
2018-12-01T11:30:31.004Z,15.10
2018-12-01T11:32:59.289Z,13.30
2018-12-01T11:35:27.457Z,12.60
2018-12-01T11:37:55.541Z,12.20
2018-12-01T11:40:23.905Z,11.80
2018-12-01T11:42:52.265Z,11.90
2018-12-01T11:45:22.935Z,12.00
2018-12-01T11:47:51.036Z,11.90
2018-12-01T11:50:20.063Z,11.90
2018-12-01T11:52:49.090Z,12.50
2018-12-01T11:55:19.385Z,12.70
2018-12-01T11:57:47.536Z,13.70
2018-12-01T12:00:17.078Z,13.00
2018-12-01T12:02:45.435Z,12.50
2018-12-01T12:05:14.879Z,13.30
2018-12-01T12:07:54.336Z,14.30
2018-12-01T12:10:22.448Z,15.90
2018-12-01T12:12:50.552Z,15.50
2018-12-01T12:15:19.143Z,15.30
2018-12-01T12:17:53.360Z,14.50
2018-12-01T12:20:21.443Z,13.80
2018-12-01T12:22:49.532Z,13.50
2018-12-01T12:25:17.612Z,12.90
2018-12-01T12:27:45.700Z,12.60
2018-12-01T12:30:14.827Z,12.50
2018-12-01T12:32:43.362Z,13.10
2018-12-01T12:35:12.703Z,16.00
2018-12-01T12:37:40.994Z,16.20
2018-12-01T12:40:25.960Z,15.20
2018-12-01T12:42:55.161Z,13.20
